createdAt,value
2019-05-15T00:01:53.036Z,6.40
2019-05-15T00:04:20.592Z,6.29
2019-05-15T00:06:48.609Z,6.28
2019-05-15T00:09:16.116Z,6.23
2019-05-15T00:11:43.272Z,6.26
2019-05-15T00:14:10.419Z,6.17
2019-05-15T00:16:38.606Z,6.08
2019-05-15T00:19:08.497Z,6.09
2019-05-15T00:21:35.393Z,5.96
2019-05-15T00:24:02.769Z,5.90
2019-05-15T00:26:30.165Z,5.85
2019-05-15T00:29:09.526Z,5.78
2019-05-15T00:31:28.982Z,5.68
2019-05-15T00:33:55.651Z,5.59
2019-05-15T00:36:22.895Z,5.63
2019-05-15T00:38:50.143Z,5.58
2019-05-15T00:41:18.520Z,5.64
2019-05-15T00:43:45.928Z,5.57
2019-05-15T00:46:13.082Z,5.58
2019-05-15T00:48:40.524Z,5.54
2019-05-15T00:51:08.452Z,5.54
2019-05-15T00:53:36.283Z,5.51
2019-05-15T00:56:04.146Z,5.49
2019-05-15T00:58:31.309Z,5.46
2019-05-15T01:00:59.155Z,5.45
2019-05-15T01:03:27.853Z,5.39
2019-05-15T01:05:55.273Z,5.50
2019-05-15T01:08:22.781Z,5.42
2019-05-15T01:10:50.183Z,5.48
2019-05-15T01:13:18.978Z,5.47
2019-05-15T01:15:48.771Z,5.39
2019-05-15T01:18:15.853Z,5.38
2019-05-15T01:20:43.443Z,5.41
2019-05-15T01:23:10.727Z,5.28
2019-05-15T01:25:39.042Z,5.26
2019-05-15T01:28:09.098Z,5.25
2019-05-15T01:30:36.142Z,5.19
2019-05-15T01:33:03.632Z,5.22
2019-05-15T01:35:30.875Z,5.12
2019-05-15T01:37:58.591Z,5.15
2019-05-15T01:40:26.183Z,5.08
2019-05-15T01:42:53.350Z,5.05
2019-05-15T01:45:20.804Z,5.00
2019-05-15T01:47:48.115Z,4.93
2019-05-15T01:50:15.630Z,4.97
2019-05-15T01:52:42.879Z,4.96
2019-05-15T01:55:11.237Z,4.90
2019-05-15T01:57:38.714Z,4.84
2019-05-15T02:00:08.691Z,4.73
2019-05-15T02:02:38.819Z,4.74
2019-05-15T02:05:08.435Z,4.75
2019-05-15T02:07:38.755Z,4.71
2019-05-15T02:10:09.144Z,4.70
2019-05-15T02:12:38.480Z,4.71
2019-05-15T02:15:08.351Z,4.63
2019-05-15T02:17:35.010Z,4.63
2019-05-15T02:20:02.903Z,4.56
2019-05-15T02:22:30.379Z,4.58
2019-05-15T02:24:59.182Z,4.44
2019-05-15T02:27:28.764Z,4.49
2019-05-15T02:30:13.045Z,4.34
2019-05-15T02:32:24.877Z,4.54
2019-05-15T02:34:52.263Z,4.40
2019-05-15T02:37:19.634Z,4.34
2019-05-15T02:39:49.326Z,4.26
2019-05-15T02:42:19.031Z,4.17
2019-05-15T02:44:45.245Z,4.19
2019-05-15T02:47:12.494Z,4.31
2019-05-15T02:49:39.939Z,4.10
2019-05-15T02:52:09.739Z,4.05
2019-05-15T02:54:36.542Z,4.01
2019-05-15T02:57:03.911Z,3.97
2019-05-15T02:59:31.264Z,3.90
2019-05-15T03:01:59.379Z,3.88
2019-05-15T03:04:29.044Z,3.76
2019-05-15T03:06:56.116Z,3.77
2019-05-15T03:09:23.460Z,3.95
2019-05-15T03:11:50.940Z,3.83
2019-05-15T03:14:21.365Z,3.73
2019-05-15T03:16:49.702Z,3.69
2019-05-15T03:19:19.321Z,3.68
2019-05-15T03:21:49.695Z,3.59
2019-05-15T03:24:19.168Z,3.59
2019-05-15T03:26:45.709Z,3.51
2019-05-15T03:29:12.874Z,3.51
2019-05-15T03:31:58.874Z,3.50
2019-05-15T03:34:20.414Z,3.42
2019-05-15T03:36:44.263Z,3.42
2019-05-15T03:39:09.683Z,3.41
2019-05-15T03:41:39.278Z,3.49
2019-05-15T03:44:09.222Z,3.43
2019-05-15T03:46:35.734Z,3.44
2019-05-15T03:49:03.190Z,3.54
2019-05-15T03:51:30.653Z,3.53
2019-05-15T03:54:00.288Z,3.49
2019-05-15T03:56:29.574Z,3.50
2019-05-15T03:58:59.780Z,3.49
2019-05-15T04:01:34.292Z,3.42
2019-05-15T04:03:59.808Z,3.53
2019-05-15T04:06:29.642Z,3.58
2019-05-15T04:08:58.554Z,3.61
2019-05-15T04:11:25.469Z,3.58
2019-05-15T04:13:52.912Z,3.67
2019-05-15T04:16:20.188Z,3.67
2019-05-15T04:18:49.064Z,3.73
2019-05-15T04:21:19.685Z,3.76
2019-05-15T04:23:50.050Z,3.77
2019-05-15T04:26:19.394Z,3.84
2019-05-15T04:28:49.429Z,3.88
2019-05-15T04:31:19.187Z,3.94
2019-05-15T04:33:48.870Z,3.98
2019-05-15T04:36:14.802Z,4.05
2019-05-15T04:38:42.061Z,4.16
2019-05-15T04:41:09.967Z,4.18
2019-05-15T04:43:43.727Z,4.29
2019-05-15T04:46:09.802Z,4.36
2019-05-15T04:48:35.966Z,4.42
2019-05-15T04:51:03.367Z,4.51
2019-05-15T04:53:33.150Z,4.56
2019-05-15T04:56:00.066Z,4.70
2019-05-15T04:58:29.724Z,4.77
2019-05-15T05:00:59.909Z,4.85
2019-05-15T05:03:29.211Z,4.99
2019-05-15T05:05:58.842Z,5.11
2019-05-15T05:08:25.225Z,5.22
2019-05-15T05:10:52.560Z,5.32
2019-05-15T05:13:20.497Z,5.44
2019-05-15T05:15:50.267Z,5.64
2019-05-15T05:18:19.053Z,5.87
2019-05-15T05:20:48.475Z,6.11
2019-05-15T05:23:18.886Z,6.18
2019-05-15T05:25:45.686Z,6.29
2019-05-15T05:28:13.314Z,6.44
2019-05-15T05:30:41.005Z,6.58
2019-05-15T05:33:08.597Z,6.74
2019-05-15T05:35:36.139Z,7.01
2019-05-15T05:38:03.505Z,7.47
2019-05-15T05:40:30.923Z,8.14
2019-05-15T05:42:59.611Z,8.71
2019-05-15T05:45:28.795Z,9.14
2019-05-15T05:47:58.059Z,9.77
2019-05-15T05:50:38.758Z,9.92
2019-05-15T05:53:08.823Z,10.31
2019-05-15T05:55:38.314Z,10.45
2019-05-15T05:58:08.039Z,11.00
2019-05-15T06:00:48.610Z,11.04
2019-05-15T06:03:15.269Z,11.21
2019-05-15T06:05:42.737Z,11.44
2019-05-15T06:08:10.373Z,11.48
2019-05-15T06:10:38.756Z,11.49
2019-05-15T06:13:08.683Z,11.02
2019-05-15T06:15:37.918Z,11.20
2019-05-15T06:18:08.342Z,11.09
2019-05-15T06:20:41.065Z,11.25
2019-05-15T06:23:08.521Z,11.28
2019-05-15T06:25:36.060Z,11.46
2019-05-15T06:28:03.811Z,11.31
2019-05-15T06:30:31.497Z,11.07
2019-05-15T06:33:08.376Z,11.00
2019-05-15T06:35:31.188Z,10.86
2019-05-15T06:37:59.062Z,10.98
2019-05-15T06:40:28.893Z,10.99
2019-05-15T06:42:55.968Z,10.84
2019-05-15T06:45:24.378Z,11.00
2019-05-15T06:47:51.638Z,10.88
2019-05-15T06:50:38.980Z,11.12
2019-05-15T06:53:10.456Z,11.04
2019-05-15T06:55:38.613Z,10.84
2019-05-15T06:58:05.380Z,10.62
2019-05-15T07:00:32.841Z,10.82
2019-05-15T07:03:00.248Z,10.98
2019-05-15T07:05:29.455Z,10.81
2019-05-15T07:07:58.535Z,11.02
2019-05-15T07:10:28.668Z,11.01
2019-05-15T07:13:02.827Z,11.10
2019-05-15T07:15:30.275Z,11.23
2019-05-15T07:17:58.102Z,11.19
2019-05-15T07:20:28.484Z,11.28
2019-05-15T07:22:58.458Z,11.34
2019-05-15T07:25:25.442Z,11.33
2019-05-15T07:27:53.049Z,11.25
2019-05-15T07:30:21.360Z,11.25
2019-05-15T07:32:48.889Z,11.15
2019-05-15T07:35:19.154Z,11.38
2019-05-15T07:37:47.862Z,11.07
2019-05-15T07:40:19.340Z,10.84
2019-05-15T07:42:49.011Z,11.00
2019-05-15T07:45:19.796Z,11.07
2019-05-15T07:47:48.938Z,11.08
2019-05-15T07:50:21.839Z,10.93
2019-05-15T07:52:49.091Z,11.07
2019-05-15T07:55:18.511Z,11.10
2019-05-15T07:57:45.951Z,11.24
2019-05-15T08:00:14.680Z,11.30
2019-05-15T08:02:42.943Z,11.12
2019-05-15T08:05:11.285Z,11.29
2019-05-15T08:07:39.073Z,11.19
2019-05-15T08:10:08.734Z,11.21
2019-05-15T08:12:39.274Z,11.28
2019-05-15T08:15:10.090Z,11.50
2019-05-15T08:17:56.070Z,11.50
2019-05-15T08:20:10.638Z,11.45
2019-05-15T08:22:38.486Z,11.57
2019-05-15T08:25:11.361Z,11.65
2019-05-15T08:27:38.292Z,11.78
2019-05-15T08:30:08.941Z,11.68
2019-05-15T08:32:38.652Z,11.62
2019-05-15T08:35:08.077Z,11.69
2019-05-15T08:37:36.303Z,11.55
2019-05-15T08:40:08.402Z,11.64
2019-05-15T08:42:35.454Z,11.69
2019-05-15T08:45:03.627Z,11.75
2019-05-15T08:47:31.088Z,11.71
2019-05-15T08:49:58.244Z,11.83
2019-05-15T08:52:25.628Z,11.97
2019-05-15T08:54:54.686Z,11.89
2019-05-15T08:57:22.035Z,12.01
2019-05-15T08:59:49.380Z,11.88
2019-05-15T09:02:18.577Z,11.96
2019-05-15T09:04:45.687Z,11.91
2019-05-15T09:07:12.931Z,12.02
2019-05-15T09:09:40.209Z,12.07
2019-05-15T09:12:08.283Z,12.07
2019-05-15T09:14:37.934Z,12.17
2019-05-15T09:17:05.203Z,12.12
2019-05-15T09:19:32.356Z,12.05
2019-05-15T09:21:59.726Z,12.13
2019-05-15T09:24:28.637Z,12.05
2019-05-15T09:26:56.143Z,12.22
2019-05-15T09:29:23.303Z,12.12
2019-05-15T09:31:50.579Z,12.16
2019-05-15T09:34:18.603Z,12.15
2019-05-15T09:36:48.428Z,12.33
2019-05-15T09:39:15.355Z,12.46
2019-05-15T09:41:42.697Z,12.53
2019-05-15T09:44:10.100Z,12.60
2019-05-15T09:46:38.275Z,12.70
2019-05-15T09:49:08.610Z,12.81
2019-05-15T09:51:35.215Z,12.98
2019-05-15T09:54:02.703Z,13.07
2019-05-15T09:56:29.984Z,13.25
2019-05-15T09:58:58.208Z,13.39
2019-05-15T10:01:28.528Z,13.44
2019-05-15T10:03:56.262Z,13.53
2019-05-15T10:06:23.414Z,13.86
2019-05-15T10:08:50.748Z,14.08
2019-05-15T10:11:19.780Z,14.37
2019-05-15T10:13:47.420Z,14.93
2019-05-15T10:16:14.673Z,15.35
2019-05-15T10:18:41.866Z,15.71
2019-05-15T10:21:09.336Z,16.29
2019-05-15T10:23:40.045Z,16.84
2019-05-15T10:26:13.262Z,17.99
2019-05-15T10:28:35.357Z,18.82
2019-05-15T10:31:03.785Z,19.52
2019-05-15T10:33:31.036Z,20.17
2019-05-15T10:35:59.119Z,20.51
2019-05-15T10:38:28.516Z,21.20
2019-05-15T10:41:08.521Z,21.75
2019-05-15T10:43:25.084Z,22.66
2019-05-15T10:45:54.694Z,22.63
2019-05-15T10:48:21.577Z,23.26
2019-05-15T10:50:48.927Z,24.27
2019-05-15T10:53:18.773Z,24.75
2019-05-15T10:55:46.265Z,24.89
2019-05-15T10:58:17.076Z,25.02
2019-05-15T11:00:42.791Z,25.08
2019-05-15T11:03:10.163Z,25.83
2019-05-15T11:05:44.922Z,25.54
2019-05-15T11:08:08.323Z,25.91
2019-05-15T11:10:38.556Z,26.11
2019-05-15T11:13:05.686Z,26.42
2019-05-15T11:15:32.975Z,26.67
2019-05-15T11:18:00.405Z,26.60
2019-05-15T11:20:27.685Z,26.98
2019-05-15T11:22:55.034Z,27.06
2019-05-15T11:25:22.561Z,27.28
2019-05-15T11:27:49.903Z,27.23
2019-05-15T11:30:19.287Z,26.97
2019-05-15T11:32:48.659Z,26.38
2019-05-15T11:35:18.642Z,26.84
2019-05-15T11:37:47.137Z,26.24
2019-05-15T11:40:15.864Z,26.48
2019-05-15T11:42:43.213Z,26.84
2019-05-15T11:45:12.273Z,26.87
2019-05-15T11:47:40.277Z,26.32
2019-05-15T11:50:09.713Z,26.92
2019-05-15T11:52:40.120Z,27.10
2019-05-15T11:55:08.355Z,27.33
2019-05-15T11:57:43.624Z,27.21
2019-05-15T12:00:15.085Z,27.34
2019-05-15T12:02:38.415Z,27.36
2019-05-15T12:05:09.269Z,27.45
2019-05-15T12:07:38.169Z,27.81
2019-05-15T12:10:09.838Z,26.94
2019-05-15T12:12:38.306Z,26.29
2019-05-15T12:15:05.869Z,26.20
2019-05-15T12:17:34.209Z,26.43
2019-05-15T12:20:06.438Z,26.62
2019-05-15T12:22:31.216Z,26.62
2019-05-15T12:25:00.521Z,26.69
2019-05-15T12:27:28.308Z,26.76
2019-05-15T12:29:56.196Z,26.87
2019-05-15T12:32:35.564Z,26.61
2019-05-15T12:34:59.786Z,26.61
2019-05-15T12:37:25.337Z,26.74
2019-05-15T12:59:46.025Z,25.42
2019-05-15T13:02:13.271Z,24.83
2019-05-15T13:04:40.434Z,24.32
2019-05-15T13:07:13.806Z,24.23
2019-05-15T13:09:38.149Z,24.19
2019-05-15T13:12:05.730Z,23.87
2019-05-15T13:14:33.108Z,23.30
2019-05-15T13:17:00.577Z,23.46
2019-05-15T13:19:28.609Z,22.58
2019-05-15T13:21:57.838Z,22.93
2019-05-15T13:24:24.989Z,22.66
2019-05-15T13:26:52.409Z,22.11
2019-05-15T13:29:19.787Z,22.23
2019-05-15T13:31:47.848Z,21.96
2019-05-15T13:34:15.329Z,21.23
2019-05-15T13:36:42.580Z,21.40
2019-05-15T13:39:09.953Z,20.89
2019-05-15T13:41:38.607Z,20.89
2019-05-15T13:44:06.069Z,20.62
2019-05-15T13:46:33.333Z,20.81
2019-05-15T13:49:00.598Z,20.36
2019-05-15T13:51:29.028Z,20.20
2019-05-15T13:53:56.671Z,19.89
2019-05-15T13:56:24.012Z,19.82
2019-05-15T13:58:51.352Z,19.80
2019-05-15T14:01:19.633Z,19.52
2019-05-15T14:03:48.337Z,19.39
2019-05-15T14:06:16.066Z,19.12
2019-05-15T14:08:43.270Z,18.94
2019-05-15T14:11:10.684Z,18.61
2019-05-15T14:13:39.185Z,18.72
2019-05-15T14:16:06.817Z,18.68
2019-05-15T14:18:34.164Z,18.62
2019-05-15T14:21:01.424Z,18.21
2019-05-15T14:23:29.579Z,18.19
2019-05-15T14:25:58.867Z,17.99
2019-05-15T14:28:28.331Z,18.01
2019-05-15T14:31:00.905Z,17.86
2019-05-15T14:33:29.149Z,17.74
2019-05-15T14:35:57.756Z,17.89
2019-05-15T14:38:25.148Z,17.81
2019-05-15T14:40:52.518Z,18.00
2019-05-15T14:43:19.662Z,18.00
2019-05-15T14:45:48.043Z,18.05
2019-05-15T14:48:15.577Z,18.18
2019-05-15T14:50:42.967Z,18.25
2019-05-15T14:53:10.356Z,18.45
2019-05-15T14:55:43.222Z,18.49
2019-05-15T14:58:08.318Z,18.44
2019-05-15T15:00:36.020Z,18.45
2019-05-15T15:03:03.304Z,18.39
2019-05-15T15:05:30.995Z,18.35
2019-05-15T15:07:58.682Z,18.41
2019-05-15T15:10:28.925Z,18.47
2019-05-15T15:12:55.683Z,18.43
2019-05-15T15:15:24.961Z,18.50
2019-05-15T15:17:52.146Z,18.18
2019-05-15T15:20:19.711Z,18.45
2019-05-15T15:22:48.508Z,18.40
2019-05-15T15:25:16.132Z,18.30
2019-05-15T15:27:48.720Z,18.48
2019-05-15T15:30:18.794Z,18.42
2019-05-15T15:32:45.437Z,18.44
2019-05-15T15:35:13.201Z,18.61
2019-05-15T15:37:40.382Z,18.66
2019-05-15T15:40:09.084Z,18.52
2019-05-15T15:42:39.083Z,18.49
2019-05-15T15:45:09.015Z,18.75
2019-05-15T15:47:36.022Z,18.79
2019-05-15T15:50:06.315Z,18.62
2019-05-15T15:52:38.206Z,18.66
2019-05-15T15:55:05.163Z,18.55
2019-05-15T15:57:32.570Z,18.31
2019-05-15T16:00:00.089Z,18.36
2019-05-15T16:02:28.085Z,18.29
2019-05-15T16:04:55.556Z,18.14
2019-05-15T16:07:23.417Z,17.96
2019-05-15T16:09:51.446Z,18.15
2019-05-15T16:12:18.724Z,17.94
2019-05-15T16:14:48.677Z,18.10
2019-05-15T16:17:21.248Z,17.77
2019-05-15T16:19:49.277Z,17.87
2019-05-15T16:22:21.886Z,17.70
2019-05-15T16:24:49.461Z,17.50
2019-05-15T16:27:18.271Z,17.34
2019-05-15T16:29:45.576Z,17.12
2019-05-15T16:32:13.103Z,17.01
2019-05-15T16:34:41.103Z,17.06
2019-05-15T16:37:08.928Z,17.02
2019-05-15T16:39:38.182Z,16.92
2019-05-15T16:42:05.371Z,16.80
2019-05-15T16:44:32.642Z,16.79
2019-05-15T16:46:59.915Z,16.73
2019-05-15T16:49:28.481Z,16.81
2019-05-15T16:51:58.161Z,16.59
2019-05-15T16:54:25.105Z,16.38
2019-05-15T16:56:52.291Z,16.24
2019-05-15T16:59:19.866Z,16.29
2019-05-15T17:01:48.911Z,16.41
2019-05-15T17:04:18.176Z,16.36
2019-05-15T17:06:45.668Z,16.13
2019-05-15T17:09:21.007Z,15.95
2019-05-15T17:11:42.078Z,16.18
2019-05-15T17:14:09.531Z,16.03
2019-05-15T17:16:38.686Z,15.94
2019-05-15T17:19:08.561Z,15.78
2019-05-15T17:21:35.340Z,15.56
2019-05-15T17:24:03.525Z,15.59
2019-05-15T17:26:30.783Z,15.46
2019-05-15T17:28:58.345Z,15.30
2019-05-15T17:31:25.760Z,15.33
2019-05-15T17:33:53.031Z,15.38
2019-05-15T17:36:20.319Z,15.29
2019-05-15T17:38:48.711Z,15.27
2019-05-15T17:41:16.154Z,15.04
2019-05-15T17:43:43.397Z,15.01
2019-05-15T17:46:10.850Z,14.89
2019-05-15T17:48:38.833Z,14.85
2019-05-15T17:51:08.942Z,14.78
2019-05-15T17:53:38.272Z,14.72
2019-05-15T17:56:05.690Z,14.73
2019-05-15T17:58:32.860Z,14.69
2019-05-15T18:01:01.668Z,14.65
2019-05-15T18:03:29.116Z,14.58
2019-05-15T18:05:58.844Z,14.40
2019-05-15T18:08:28.476Z,14.35
2019-05-15T18:10:55.030Z,14.23
2019-05-15T18:13:22.401Z,14.40
2019-05-15T18:15:49.691Z,14.30
2019-05-15T18:18:18.676Z,14.07
2019-05-15T18:20:48.301Z,14.19
2019-05-15T18:23:18.743Z,14.03
2019-05-15T18:25:49.186Z,13.81
2019-05-15T18:28:18.632Z,13.84
2019-05-15T18:30:47.904Z,13.72
2019-05-15T18:33:18.392Z,13.74
2019-05-15T18:35:45.432Z,13.74
2019-05-15T18:38:13.190Z,13.68
2019-05-15T18:40:44.578Z,13.64
2019-05-15T18:43:11.953Z,13.61
2019-05-15T18:45:39.462Z,13.30
2019-05-15T18:48:06.838Z,13.37
2019-05-15T18:50:34.021Z,13.44
2019-05-15T18:53:01.412Z,13.41
2019-05-15T18:55:28.938Z,13.31
2019-05-15T18:57:58.410Z,13.22
2019-05-15T19:00:25.860Z,13.25
2019-05-15T19:02:54.231Z,13.09
2019-05-15T19:05:21.732Z,13.18
2019-05-15T19:07:51.628Z,13.19
2019-05-15T19:10:20.028Z,13.13
2019-05-15T19:12:48.408Z,13.14
2019-05-15T19:15:17.908Z,13.11
2019-05-15T19:17:47.473Z,13.09
2019-05-15T19:20:15.372Z,12.93
2019-05-15T19:22:42.679Z,12.88
2019-05-15T19:25:12.862Z,12.84
2019-05-15T19:27:40.093Z,12.76
2019-05-15T19:30:09.351Z,12.76
2019-05-15T19:32:38.866Z,12.95
2019-05-15T19:35:08.052Z,12.85
2019-05-15T19:37:38.413Z,12.78
2019-05-15T19:40:08.389Z,12.76
2019-05-15T19:42:38.159Z,12.78
2019-05-15T19:45:08.595Z,12.71
2019-05-15T19:47:38.399Z,12.81
2019-05-15T19:50:11.285Z,12.77
2019-05-15T19:52:39.029Z,12.75
2019-05-15T19:55:08.899Z,12.77
2019-05-15T19:57:38.727Z,12.60
2019-05-15T20:00:08.291Z,12.61
2019-05-15T20:02:37.902Z,12.63
2019-05-15T20:05:09.221Z,12.66
2019-05-15T20:07:38.992Z,12.57
2019-05-15T20:10:07.504Z,12.67
2019-05-15T20:12:35.654Z,12.56
2019-05-15T20:15:04.071Z,12.69
2019-05-15T20:17:31.666Z,12.62
2019-05-15T20:19:58.956Z,12.62
2019-05-15T20:22:28.342Z,12.63
2019-05-15T20:24:55.883Z,12.58
2019-05-15T20:27:25.270Z,12.55
2019-05-15T20:29:52.674Z,12.57
2019-05-15T20:32:19.940Z,12.45
2019-05-15T20:34:48.329Z,12.40
2019-05-15T20:37:18.303Z,12.48
2019-05-15T20:39:45.589Z,12.38
2019-05-15T20:42:13.826Z,12.45
2019-05-15T20:44:41.088Z,12.28
2019-05-15T20:47:09.028Z,12.23
2019-05-15T20:49:37.799Z,12.30
2019-05-15T20:52:05.427Z,12.28
2019-05-15T20:54:32.735Z,12.37
2019-05-15T20:57:00.349Z,12.29
2019-05-15T20:59:27.772Z,12.15
2019-05-15T21:01:55.339Z,12.15
2019-05-15T21:04:24.387Z,12.09
2019-05-15T21:06:51.785Z,12.05
2019-05-15T21:09:19.032Z,12.09
2019-05-15T21:11:48.279Z,12.11
2019-05-15T21:14:15.531Z,12.17
2019-05-15T21:16:43.054Z,12.06
2019-05-15T21:19:10.400Z,12.14
2019-05-15T21:21:38.641Z,12.11
2019-05-15T21:24:10.277Z,12.12
2019-05-15T21:26:38.249Z,12.12
2019-05-15T21:29:07.755Z,12.15
2019-05-15T21:31:34.629Z,12.17
2019-05-15T21:34:08.507Z,12.13
2019-05-15T21:36:36.125Z,12.07
2019-05-15T21:39:04.918Z,12.07
2019-05-15T21:41:32.707Z,12.10
2019-05-15T21:43:59.946Z,11.99
2019-05-15T21:46:27.406Z,11.98
2019-05-15T21:48:54.974Z,11.99
2019-05-15T21:51:22.115Z,11.92
2019-05-15T21:53:49.373Z,11.80
2019-05-15T21:56:18.819Z,11.81
2019-05-15T21:58:48.357Z,11.85
2019-05-15T22:01:16.035Z,11.72
2019-05-15T22:03:43.284Z,11.82
2019-05-15T22:06:11.280Z,11.80
2019-05-15T22:08:38.670Z,11.66
2019-05-15T22:11:06.248Z,11.58
2019-05-15T22:13:33.607Z,11.61
2019-05-15T22:16:01.368Z,11.60
2019-05-15T22:18:30.332Z,11.51
2019-05-15T22:20:58.574Z,11.47
2019-05-15T22:23:27.874Z,11.44
2019-05-15T22:25:55.181Z,11.39
2019-05-15T22:28:23.073Z,11.28
2019-05-15T22:30:50.846Z,11.27
2019-05-15T22:33:21.025Z,11.25
2019-05-15T22:35:49.633Z,11.33
2019-05-15T22:38:18.090Z,11.28
2019-05-15T22:40:45.741Z,11.30
2019-05-15T22:43:13.080Z,11.29
2019-05-15T22:45:42.287Z,11.21
2019-05-15T22:48:10.489Z,11.27
2019-05-15T22:50:42.408Z,11.24
2019-05-15T22:53:12.227Z,11.25
2019-05-15T22:55:40.550Z,11.19
2019-05-15T22:58:09.638Z,11.09
2019-05-15T23:00:39.255Z,11.13
2019-05-15T23:03:08.424Z,11.08
2019-05-15T23:05:39.142Z,11.09
2019-05-15T23:08:06.750Z,11.02
2019-05-15T23:10:37.931Z,11.00
2019-05-15T23:13:05.796Z,11.07
2019-05-15T23:15:33.713Z,11.04
2019-05-15T23:18:00.938Z,11.01
2019-05-15T23:20:31.497Z,11.02
2019-05-15T23:22:59.409Z,10.99
2019-05-15T23:25:28.692Z,10.98
2019-05-15T23:27:58.187Z,11.09
2019-05-15T23:30:25.113Z,11.07
2019-05-15T23:32:52.374Z,11.00
2019-05-15T23:35:19.648Z,11.01
2019-05-15T23:37:48.571Z,10.98
2019-05-15T23:40:17.979Z,11.07
2019-05-15T23:42:45.675Z,10.97
2019-05-15T23:45:13.410Z,11.07
2019-05-15T23:47:40.697Z,11.00
2019-05-15T23:50:08.357Z,10.99
2019-05-15T23:52:35.610Z,11.03
2019-05-15T23:55:05.130Z,10.92
2019-05-15T23:57:32.301Z,10.98
2019-05-15T23:59:59.675Z,10.98
